createdAt,value
2022-09-29T00:03:48.567Z,7.43
2022-09-29T00:08:51.224Z,6.72
2022-09-29T00:13:55.277Z,6.78
2022-09-29T00:18:57.940Z,7.00
2022-09-29T00:24:01.099Z,7.07
2022-09-29T00:29:04.494Z,6.90
2022-09-29T00:34:07.052Z,7.07
2022-09-29T00:39:09.675Z,6.90
2022-09-29T00:44:15.294Z,6.28
2022-09-29T00:49:42.041Z,6.43
2022-09-29T00:54:50.269Z,5.70
2022-09-29T01:00:09.490Z,6.20
2022-09-29T01:05:17.606Z,5.70
2022-09-29T01:10:20.961Z,6.18
2022-09-29T01:15:23.767Z,5.95
2022-09-29T01:20:28.462Z,5.72
2022-09-29T01:26:07.424Z,6.30
2022-09-29T01:31:13.144Z,6.05
2022-09-29T01:36:50.661Z,5.88
2022-09-29T01:42:11.677Z,6.13
2022-09-29T01:47:23.496Z,6.15
2022-09-29T01:52:31.079Z,6.25
2022-09-29T01:57:56.060Z,6.40
2022-09-29T02:03:17.334Z,6.07
2022-09-29T02:08:26.127Z,7.00
2022-09-29T02:13:33.154Z,7.00
2022-09-29T02:18:44.114Z,6.28
2022-09-29T02:23:46.678Z,6.35
2022-09-29T02:28:49.661Z,6.53
2022-09-29T02:33:52.216Z,6.80
2022-09-29T02:39:07.483Z,5.95
2022-09-29T02:44:42.809Z,6.38
2022-09-29T02:50:19.522Z,5.50
2022-09-29T02:55:28.932Z,5.88
2022-09-29T03:00:31.949Z,5.55
2022-09-29T03:05:34.737Z,5.30
2022-09-29T03:10:37.341Z,5.13
2022-09-29T03:15:39.891Z,5.22
2022-09-29T03:20:42.487Z,5.30
2022-09-29T03:25:45.045Z,5.95
2022-09-29T03:30:47.635Z,4.78
2022-09-29T03:35:50.160Z,5.35
2022-09-29T03:40:52.841Z,5.55
2022-09-29T03:45:56.232Z,5.47
2022-09-29T03:50:58.792Z,5.68
2022-09-29T03:56:01.903Z,5.75
2022-09-29T04:01:04.504Z,5.47
2022-09-29T04:06:07.245Z,5.05
2022-09-29T04:11:09.877Z,5.72
2022-09-29T04:16:12.483Z,5.60
2022-09-29T04:21:15.084Z,5.28
2022-09-29T04:26:17.981Z,5.18
2022-09-29T04:31:20.676Z,5.35
2022-09-29T04:36:23.461Z,5.57
2022-09-29T04:41:26.024Z,4.90
2022-09-29T04:46:28.673Z,4.78
2022-09-29T04:51:31.576Z,4.95
2022-09-29T04:56:34.170Z,4.63
2022-09-29T05:01:37.188Z,4.88
2022-09-29T05:06:41.106Z,5.10
2022-09-29T05:11:43.691Z,6.78
2022-09-29T05:16:46.297Z,5.25
2022-09-29T05:21:49.127Z,6.15
2022-09-29T05:26:58.187Z,5.50
2022-09-29T05:32:01.427Z,5.55
2022-09-29T05:37:04.914Z,5.35
2022-09-29T05:42:11.568Z,5.60
2022-09-29T05:47:14.169Z,5.85
2022-09-29T05:52:16.757Z,6.03
2022-09-29T05:57:19.351Z,7.40
2022-09-29T06:02:22.586Z,8.45
2022-09-29T06:07:25.498Z,9.23
2022-09-29T06:12:28.038Z,9.40
2022-09-29T06:17:30.631Z,9.90
2022-09-29T06:22:33.817Z,10.18
2022-09-29T06:27:36.463Z,9.18
2022-09-29T06:32:39.818Z,8.30
2022-09-29T06:37:46.544Z,9.10
2022-09-29T06:42:50.005Z,8.27
2022-09-29T06:47:58.548Z,9.52
2022-09-29T06:53:04.276Z,8.93
2022-09-29T06:58:07.317Z,8.85
2022-09-29T07:03:10.221Z,10.35
2022-09-29T07:08:13.687Z,11.23
2022-09-29T07:13:16.538Z,10.73
2022-09-29T07:18:19.123Z,11.35
2022-09-29T07:23:21.711Z,11.43
2022-09-29T07:28:24.846Z,11.02
2022-09-29T07:33:37.922Z,11.65
2022-09-29T07:38:41.965Z,12.05
2022-09-29T07:43:44.674Z,11.07
2022-09-29T07:48:47.752Z,9.95
2022-09-29T07:53:51.220Z,8.07
2022-09-29T07:58:53.852Z,9.25
2022-09-29T08:03:56.480Z,8.65
2022-09-29T08:09:05.154Z,8.07
2022-09-29T08:14:09.795Z,8.75
2022-09-29T08:24:20.060Z,8.23
2022-09-29T08:29:22.650Z,8.07
2022-09-29T08:34:25.490Z,8.80
2022-09-29T08:39:28.290Z,8.88
2022-09-29T08:44:46.894Z,8.85
2022-09-29T08:49:58.424Z,9.18
2022-09-29T08:55:22.204Z,7.63
2022-09-29T09:00:46.621Z,7.63
2022-09-29T09:06:03.757Z,9.10
2022-09-29T09:11:27.907Z,7.68
2022-09-29T09:16:53.151Z,8.20
2022-09-29T09:22:27.958Z,7.40
2022-09-29T09:27:47.935Z,7.97
2022-09-29T09:32:59.520Z,8.30
2022-09-29T09:38:10.170Z,7.63
2022-09-29T09:43:20.722Z,6.88
2022-09-29T09:48:44.019Z,6.90
2022-09-29T09:53:52.819Z,6.82
2022-09-29T09:59:06.270Z,6.28
2022-09-29T10:04:12.888Z,6.30
2022-09-29T10:09:16.374Z,6.55
2022-09-29T10:14:28.032Z,7.10
2022-09-29T10:25:05.707Z,7.20
2022-09-29T10:30:22.654Z,7.13
2022-09-29T10:35:32.248Z,7.00
2022-09-29T10:40:35.721Z,7.05
2022-09-29T10:45:48.896Z,6.60
2022-09-29T10:56:22.521Z,7.00
2022-09-29T11:01:27.871Z,6.85
2022-09-29T11:06:35.706Z,7.13
2022-09-29T11:11:40.876Z,7.45
2022-09-29T11:16:56.928Z,7.50
2022-09-29T11:22:11.874Z,7.13
2022-09-29T11:27:26.434Z,6.47
2022-09-29T11:32:58.333Z,6.78
2022-09-29T11:43:48.094Z,6.97
2022-09-29T11:49:23.334Z,8.15
2022-09-29T11:54:47.984Z,7.15
2022-09-29T12:00:07.689Z,7.85
2022-09-29T12:05:28.528Z,7.97
2022-09-29T12:11:13.120Z,6.57
2022-09-29T12:16:30.587Z,7.55
2022-09-29T12:21:40.820Z,9.25
2022-09-29T12:26:46.670Z,8.02
2022-09-29T12:31:52.648Z,7.43
2022-09-29T12:37:17.677Z,6.88
2022-09-29T12:42:23.089Z,8.52
2022-09-29T12:47:52.359Z,7.35
2022-09-29T12:58:53.262Z,7.35
2022-09-29T13:04:29.806Z,8.25
2022-09-29T13:09:41.549Z,8.57
2022-09-29T13:14:46.884Z,8.52
2022-09-29T13:20:02.029Z,8.23
2022-09-29T13:25:45.055Z,7.57
2022-09-29T13:30:48.275Z,7.45
2022-09-29T13:35:52.898Z,8.25
2022-09-29T13:41:17.990Z,8.18
2022-09-29T13:46:30.090Z,8.07
2022-09-29T13:51:52.054Z,8.18
2022-09-29T13:57:12.716Z,8.52
2022-09-29T14:02:30.758Z,8.48
2022-09-29T14:07:49.611Z,7.88
2022-09-29T14:13:05.771Z,8.93
2022-09-29T14:18:20.236Z,8.57
2022-09-29T14:23:49.945Z,10.05
2022-09-29T14:28:54.893Z,9.75
2022-09-29T14:34:02.549Z,9.02
2022-09-29T14:44:54.340Z,10.68
2022-09-29T14:50:21.435Z,8.48
2022-09-29T14:55:49.518Z,8.57
2022-09-29T15:00:58.266Z,8.20
2022-09-29T15:06:11.919Z,8.38
2022-09-29T15:11:51.514Z,8.20
2022-09-29T15:17:20.838Z,9.00
2022-09-29T15:22:38.581Z,8.82
2022-09-29T15:27:41.238Z,9.52
2022-09-29T15:32:46.979Z,9.00
2022-09-29T15:38:28.125Z,8.70
2022-09-29T15:43:55.492Z,8.30
2022-09-29T15:49:25.197Z,9.00
2022-09-29T15:54:39.956Z,9.32
2022-09-29T15:59:54.330Z,9.13
2022-09-29T16:05:00.475Z,9.40
2022-09-29T16:10:15.789Z,9.30
2022-09-29T16:15:46.459Z,9.25
2022-09-29T16:20:49.549Z,9.93
2022-09-29T16:26:07.409Z,9.15
2022-09-29T16:31:22.296Z,10.07
2022-09-29T16:36:28.043Z,9.43
2022-09-29T16:41:36.638Z,9.50
2022-09-29T16:46:58.937Z,10.15
2022-09-29T16:52:27.049Z,9.82
2022-09-29T16:57:31.564Z,10.10
2022-09-29T17:02:34.233Z,9.45
2022-09-29T17:07:44.450Z,8.73
2022-09-29T17:12:47.745Z,9.35
2022-09-29T17:17:51.375Z,10.70
2022-09-29T17:22:54.447Z,11.15
2022-09-29T17:28:12.482Z,12.10
2022-09-29T17:33:17.225Z,12.23
2022-09-29T17:38:20.020Z,13.75
2022-09-29T17:43:24.440Z,13.23
2022-09-29T17:48:28.493Z,12.95
2022-09-29T17:53:31.044Z,13.10
2022-09-29T17:58:33.645Z,13.43
2022-09-29T18:03:39.838Z,14.75
2022-09-29T18:08:42.881Z,14.25
2022-09-29T18:13:45.762Z,14.52
2022-09-29T18:18:48.909Z,13.20
2022-09-29T18:23:51.506Z,15.63
2022-09-29T18:28:55.004Z,15.13
2022-09-29T18:33:57.647Z,13.90
2022-09-29T18:39:00.245Z,13.57
2022-09-29T18:44:12.104Z,12.65
2022-09-29T18:54:18.070Z,12.70
2022-09-29T18:59:20.790Z,11.98
2022-09-29T19:04:24.392Z,12.95
2022-09-29T19:09:27.013Z,12.10
2022-09-29T19:14:33.807Z,12.98
2022-09-29T19:19:36.361Z,12.80
2022-09-29T19:24:39.470Z,13.25
2022-09-29T19:29:42.226Z,12.45
2022-09-29T19:34:44.941Z,13.98
2022-09-29T19:39:47.739Z,13.80
2022-09-29T19:44:50.447Z,14.52
2022-09-29T19:50:12.958Z,15.48
2022-09-29T19:55:15.736Z,14.75
2022-09-29T20:00:21.930Z,14.38
2022-09-29T20:05:24.488Z,13.35
2022-09-29T20:10:29.123Z,13.57
2022-09-29T20:15:31.777Z,14.27
2022-09-29T20:20:35.431Z,12.93
2022-09-29T20:25:39.353Z,12.70
2022-09-29T20:30:42.164Z,13.52
2022-09-29T20:35:44.703Z,12.70
2022-09-29T20:40:49.212Z,12.50
2022-09-29T20:45:59.594Z,11.55
2022-09-29T20:51:04.279Z,11.30
2022-09-29T20:56:09.368Z,11.48
2022-09-29T21:01:14.202Z,10.75
2022-09-29T21:06:21.061Z,10.70
2022-09-29T21:11:23.788Z,10.65
2022-09-29T21:22:56.054Z,8.93
2022-09-29T21:33:25.682Z,10.27
2022-09-29T21:38:35.259Z,9.35
2022-09-29T21:43:38.142Z,8.90
2022-09-29T21:48:44.040Z,9.07
2022-09-29T21:53:46.757Z,9.70
2022-09-29T21:58:52.092Z,10.48
2022-09-29T22:03:56.577Z,10.80
2022-09-29T22:09:00.712Z,10.77
2022-09-29T22:14:03.973Z,9.05
2022-09-29T22:19:23.712Z,10.45
2022-09-29T22:24:27.876Z,10.40
2022-09-29T22:29:30.633Z,11.27
2022-09-29T22:34:33.478Z,12.35
2022-09-29T22:39:36.164Z,12.32
2022-09-29T22:44:38.796Z,12.60
2022-09-29T22:49:41.426Z,12.60
2022-09-29T22:54:44.619Z,12.82
2022-09-29T22:59:47.298Z,12.32
2022-09-29T23:04:50.007Z,10.98
2022-09-29T23:09:52.747Z,11.75
2022-09-29T23:14:55.922Z,11.60
2022-09-29T23:20:03.057Z,11.52
2022-09-29T23:25:06.673Z,10.95
2022-09-29T23:30:10.005Z,11.48
2022-09-29T23:35:12.696Z,11.02
2022-09-29T23:40:15.537Z,10.60
2022-09-29T23:45:18.912Z,10.93
2022-09-29T23:50:22.049Z,9.95
2022-09-29T23:55:24.692Z,10.63
